sensor_id;sensor_type;location;lat;lon;timestamp;P1;durP1;ratioP1;P2;durP2;ratioP2
76850;SDS011;65824;43.726;20.692;2023-02-10T00:01:27;46.50;;;17.00;;
76850;SDS011;65824;43.726;20.692;2023-02-10T00:03:52;57.50;;;21.27;;
76850;SDS011;65824;43.726;20.692;2023-02-10T00:06:19;56.83;;;22.02;;
76850;SDS011;65824;43.726;20.692;2023-02-10T00:08:46;64.47;;;24.40;;
76850;SDS011;65824;43.726;20.692;2023-02-10T00:11:13;63.80;;;24.30;;
76850;SDS011;65824;43.726;20.692;2023-02-10T00:13:40;55.33;;;20.65;;
76850;SDS011;65824;43.726;20.692;2023-02-10T00:16:07;77.20;;;28.73;;
76850;SDS011;65824;43.726;20.692;2023-02-10T00:18:34;86.05;;;31.58;;
76850;SDS011;65824;43.726;20.692;2023-02-10T00:21:11;71.47;;;28.00;;
76850;SDS011;65824;43.726;20.692;2023-02-10T00:23:39;74.63;;;28.25;;
76850;SDS011;65824;43.726;20.692;2023-02-10T00:26:05;70.30;;;29.55;;
76850;SDS011;65824;43.726;20.692;2023-02-10T00:28:32;78.25;;;32.58;;
76850;SDS011;65824;43.726;20.692;2023-02-10T00:30:58;91.47;;;35.95;;
76850;SDS011;65824;43.726;20.692;2023-02-10T00:33:24;96.53;;;39.70;;
76850;SDS011;65824;43.726;20.692;2023-02-10T00:35:49;102.50;;;39.45;;
76850;SDS011;65824;43.726;20.692;2023-02-10T00:38:16;91.30;;;38.00;;
76850;SDS011;65824;43.726;20.692;2023-02-10T00:40:42;97.13;;;38.75;;
76850;SDS011;65824;43.726;20.692;2023-02-10T00:43:08;85.57;;;37.05;;
76850;SDS011;65824;43.726;20.692;2023-02-10T00:45:33;94.78;;;36.63;;
76850;SDS011;65824;43.726;20.692;2023-02-10T00:48:04;90.35;;;37.63;;
76850;SDS011;65824;43.726;20.692;2023-02-10T00:50:29;92.20;;;36.00;;
76850;SDS011;65824;43.726;20.692;2023-02-10T00:52:55;85.35;;;32.63;;
76850;SDS011;65824;43.726;20.692;2023-02-10T00:55:20;70.93;;;30.45;;
76850;SDS011;65824;43.726;20.692;2023-02-10T00:57:46;64.55;;;26.45;;
76850;SDS011;65824;43.726;20.692;2023-02-10T01:00:11;69.60;;;30.83;;
76850;SDS011;65824;43.726;20.692;2023-02-10T01:02:37;62.35;;;25.75;;
76850;SDS011;65824;43.726;20.692;2023-02-10T01:05:02;64.00;;;26.35;;
76850;SDS011;65824;43.726;20.692;2023-02-10T01:07:28;71.93;;;28.08;;
76850;SDS011;65824;43.726;20.692;2023-02-10T01:09:54;75.93;;;31.33;;
76850;SDS011;65824;43.726;20.692;2023-02-10T01:12:20;71.10;;;28.95;;
76850;SDS011;65824;43.726;20.692;2023-02-10T01:14:46;61.72;;;24.75;;
76850;SDS011;65824;43.726;20.692;2023-02-10T01:17:14;46.90;;;20.20;;
76850;SDS011;65824;43.726;20.692;2023-02-10T01:19:40;47.38;;;20.08;;
76850;SDS011;65824;43.726;20.692;2023-02-10T01:22:05;45.63;;;18.20;;
76850;SDS011;65824;43.726;20.692;2023-02-10T01:24:31;45.72;;;17.70;;
76850;SDS011;65824;43.726;20.692;2023-02-10T01:26:57;46.35;;;18.92;;
76850;SDS011;65824;43.726;20.692;2023-02-10T01:29:22;39.03;;;16.80;;
76850;SDS011;65824;43.726;20.692;2023-02-10T01:31:48;41.45;;;16.92;;
76850;SDS011;65824;43.726;20.692;2023-02-10T01:34:13;47.30;;;18.42;;
76850;SDS011;65824;43.726;20.692;2023-02-10T01:36:39;46.65;;;18.70;;
76850;SDS011;65824;43.726;20.692;2023-02-10T01:39:04;55.13;;;23.25;;
76850;SDS011;65824;43.726;20.692;2023-02-10T01:41:30;48.45;;;21.20;;
76850;SDS011;65824;43.726;20.692;2023-02-10T01:43:57;56.85;;;23.45;;
76850;SDS011;65824;43.726;20.692;2023-02-10T01:46:30;49.33;;;21.08;;
76850;SDS011;65824;43.726;20.692;2023-02-10T01:48:58;49.17;;;21.52;;
76850;SDS011;65824;43.726;20.692;2023-02-10T01:53:57;50.45;;;20.83;;
76850;SDS011;65824;43.726;20.692;2023-02-10T01:56:25;52.47;;;19.15;;
76850;SDS011;65824;43.726;20.692;2023-02-10T01:58:51;46.15;;;18.52;;
76850;SDS011;65824;43.726;20.692;2023-02-10T02:01:16;42.60;;;17.20;;
76850;SDS011;65824;43.726;20.692;2023-02-10T02:03:42;36.88;;;16.48;;
76850;SDS011;65824;43.726;20.692;2023-02-10T02:06:08;42.17;;;17.27;;
76850;SDS011;65824;43.726;20.692;2023-02-10T02:08:36;36.85;;;15.45;;
76850;SDS011;65824;43.726;20.692;2023-02-10T02:22:24;38.95;;;17.48;;
76850;SDS011;65824;43.726;20.692;2023-02-10T02:33:33;36.13;;;15.65;;
76850;SDS011;65824;43.726;20.692;2023-02-10T02:38:57;34.20;;;15.68;;
76850;SDS011;65824;43.726;20.692;2023-02-10T02:41:24;37.42;;;16.67;;
76850;SDS011;65824;43.726;20.692;2023-02-10T02:43:50;37.22;;;15.75;;
76850;SDS011;65824;43.726;20.692;2023-02-10T02:52:14;33.20;;;15.65;;
76850;SDS011;65824;43.726;20.692;2023-02-10T02:54:54;34.33;;;14.48;;
76850;SDS011;65824;43.726;20.692;2023-02-10T03:00:27;40.28;;;17.15;;
76850;SDS011;65824;43.726;20.692;2023-02-10T03:02:55;41.90;;;18.73;;
76850;SDS011;65824;43.726;20.692;2023-02-10T03:05:23;46.38;;;18.77;;
76850;SDS011;65824;43.726;20.692;2023-02-10T03:07:49;45.83;;;19.40;;
76850;SDS011;65824;43.726;20.692;2023-02-10T03:10:15;50.03;;;21.13;;
76850;SDS011;65824;43.726;20.692;2023-02-10T03:12:41;46.72;;;20.27;;
76850;SDS011;65824;43.726;20.692;2023-02-10T03:15:08;48.25;;;19.75;;
76850;SDS011;65824;43.726;20.692;2023-02-10T03:17:33;47.45;;;20.92;;
76850;SDS011;65824;43.726;20.692;2023-02-10T03:19:59;39.97;;;16.50;;
76850;SDS011;65824;43.726;20.692;2023-02-10T03:22:24;38.60;;;15.00;;
76850;SDS011;65824;43.726;20.692;2023-02-10T03:24:50;27.05;;;11.27;;
76850;SDS011;65824;43.726;20.692;2023-02-10T03:27:15;23.80;;;10.15;;
76850;SDS011;65824;43.726;20.692;2023-02-10T03:29:41;20.25;;;9.13;;
76850;SDS011;65824;43.726;20.692;2023-02-10T03:32:07;19.27;;;8.93;;
76850;SDS011;65824;43.726;20.692;2023-02-10T03:34:34;23.33;;;9.20;;
76850;SDS011;65824;43.726;20.692;2023-02-10T03:37:00;23.23;;;10.00;;
76850;SDS011;65824;43.726;20.692;2023-02-10T03:39:25;26.88;;;10.38;;
76850;SDS011;65824;43.726;20.692;2023-02-10T03:41:52;25.27;;;11.43;;
76850;SDS011;65824;43.726;20.692;2023-02-10T03:44:19;26.60;;;11.18;;
76850;SDS011;65824;43.726;20.692;2023-02-10T03:46:45;24.17;;;10.40;;
76850;SDS011;65824;43.726;20.692;2023-02-10T03:49:10;23.60;;;10.05;;
76850;SDS011;65824;43.726;20.692;2023-02-10T03:51:36;28.20;;;11.98;;
76850;SDS011;65824;43.726;20.692;2023-02-10T03:54:01;29.85;;;11.70;;
76850;SDS011;65824;43.726;20.692;2023-02-10T03:56:27;29.88;;;11.63;;
76850;SDS011;65824;43.726;20.692;2023-02-10T03:58:53;30.30;;;13.00;;
76850;SDS011;65824;43.726;20.692;2023-02-10T04:01:18;33.08;;;13.63;;
76850;SDS011;65824;43.726;20.692;2023-02-10T04:03:45;35.03;;;13.13;;
76850;SDS011;65824;43.726;20.692;2023-02-10T04:06:11;29.70;;;13.70;;
76850;SDS011;65824;43.726;20.692;2023-02-10T04:08:38;34.47;;;14.10;;
76850;SDS011;65824;43.726;20.692;2023-02-10T04:11:04;36.28;;;16.00;;
76850;SDS011;65824;43.726;20.692;2023-02-10T04:13:32;42.10;;;18.15;;
76850;SDS011;65824;43.726;20.692;2023-02-10T04:18:27;40.13;;;18.33;;
76850;SDS011;65824;43.726;20.692;2023-02-10T04:21:02;45.50;;;19.38;;
76850;SDS011;65824;43.726;20.692;2023-02-10T04:23:29;42.95;;;19.48;;
76850;SDS011;65824;43.726;20.692;2023-02-10T04:25:55;46.47;;;21.52;;
76850;SDS011;65824;43.726;20.692;2023-02-10T04:28:21;51.75;;;21.58;;
76850;SDS011;65824;43.726;20.692;2023-02-10T04:30:55;49.97;;;20.98;;
76850;SDS011;65824;43.726;20.692;2023-02-10T04:33:22;55.03;;;21.98;;
76850;SDS011;65824;43.726;20.692;2023-02-10T04:35:50;51.70;;;22.85;;
76850;SDS011;65824;43.726;20.692;2023-02-10T04:38:16;55.15;;;22.65;;
76850;SDS011;65824;43.726;20.692;2023-02-10T04:40:42;59.15;;;22.55;;
76850;SDS011;65824;43.726;20.692;2023-02-10T04:43:08;55.75;;;23.17;;
76850;SDS011;65824;43.726;20.692;2023-02-10T04:45:37;54.45;;;23.13;;
76850;SDS011;65824;43.726;20.692;2023-02-10T04:48:02;54.58;;;21.40;;
76850;SDS011;65824;43.726;20.692;2023-02-10T04:50:28;48.67;;;19.73;;
76850;SDS011;65824;43.726;20.692;2023-02-10T04:52:53;45.70;;;19.60;;
76850;SDS011;65824;43.726;20.692;2023-02-10T04:55:22;42.65;;;19.35;;
76850;SDS011;65824;43.726;20.692;2023-02-10T04:57:47;45.08;;;19.58;;
76850;SDS011;65824;43.726;20.692;2023-02-10T05:00:13;52.78;;;20.65;;
76850;SDS011;65824;43.726;20.692;2023-02-10T05:02:41;44.72;;;20.60;;
76850;SDS011;65824;43.726;20.692;2023-02-10T05:05:08;51.65;;;20.60;;
76850;SDS011;65824;43.726;20.692;2023-02-10T05:07:35;48.42;;;20.90;;
76850;SDS011;65824;43.726;20.692;2023-02-10T05:10:01;45.40;;;19.95;;
76850;SDS011;65824;43.726;20.692;2023-02-10T05:12:26;48.55;;;21.15;;
76850;SDS011;65824;43.726;20.692;2023-02-10T05:14:52;55.47;;;24.25;;
76850;SDS011;65824;43.726;20.692;2023-02-10T05:17:18;57.97;;;24.85;;
76850;SDS011;65824;43.726;20.692;2023-02-10T05:19:44;50.85;;;21.00;;
76850;SDS011;65824;43.726;20.692;2023-02-10T05:22:10;46.33;;;19.70;;
76850;SDS011;65824;43.726;20.692;2023-02-10T05:24:36;50.35;;;20.45;;
76850;SDS011;65824;43.726;20.692;2023-02-10T05:27:01;36.45;;;14.68;;
76850;SDS011;65824;43.726;20.692;2023-02-10T05:29:27;34.30;;;14.10;;
76850;SDS011;65824;43.726;20.692;2023-02-10T05:31:53;34.53;;;14.82;;
76850;SDS011;65824;43.726;20.692;2023-02-10T05:34:22;30.50;;;12.65;;
76850;SDS011;65824;43.726;20.692;2023-02-10T05:36:48;33.60;;;13.93;;
76850;SDS011;65824;43.726;20.692;2023-02-10T05:39:13;31.35;;;13.90;;
76850;SDS011;65824;43.726;20.692;2023-02-10T05:41:48;36.13;;;14.10;;
76850;SDS011;65824;43.726;20.692;2023-02-10T05:44:14;36.63;;;14.75;;
76850;SDS011;65824;43.726;20.692;2023-02-10T05:46:39;32.33;;;14.15;;
76850;SDS011;65824;43.726;20.692;2023-02-10T05:49:05;52.83;;;21.17;;
76850;SDS011;65824;43.726;20.692;2023-02-10T05:51:30;56.20;;;23.75;;
76850;SDS011;65824;43.726;20.692;2023-02-10T05:53:56;44.05;;;21.00;;
76850;SDS011;65824;43.726;20.692;2023-02-10T05:56:23;51.95;;;21.95;;
76850;SDS011;65824;43.726;20.692;2023-02-10T05:58:49;44.20;;;19.33;;
76850;SDS011;65824;43.726;20.692;2023-02-10T06:01:15;41.45;;;16.15;;
76850;SDS011;65824;43.726;20.692;2023-02-10T06:03:41;45.20;;;19.35;;
76850;SDS011;65824;43.726;20.692;2023-02-10T06:06:07;47.30;;;18.95;;
76850;SDS011;65824;43.726;20.692;2023-02-10T06:08:32;51.83;;;20.70;;
76850;SDS011;65824;43.726;20.692;2023-02-10T06:10:58;47.17;;;20.63;;
76850;SDS011;65824;43.726;20.692;2023-02-10T06:13:24;63.47;;;23.80;;
76850;SDS011;65824;43.726;20.692;2023-02-10T06:15:50;57.08;;;22.88;;
76850;SDS011;65824;43.726;20.692;2023-02-10T06:18:18;51.15;;;21.73;;
76850;SDS011;65824;43.726;20.692;2023-02-10T06:20:47;48.50;;;20.02;;
76850;SDS011;65824;43.726;20.692;2023-02-10T06:23:13;48.28;;;20.48;;
76850;SDS011;65824;43.726;20.692;2023-02-10T06:25:39;55.85;;;22.85;;
76850;SDS011;65824;43.726;20.692;2023-02-10T06:28:05;49.70;;;20.83;;
76850;SDS011;65824;43.726;20.692;2023-02-10T06:30:30;50.38;;;20.08;;
76850;SDS011;65824;43.726;20.692;2023-02-10T06:32:56;56.42;;;22.95;;
76850;SDS011;65824;43.726;20.692;2023-02-10T06:35:23;57.38;;;22.15;;
76850;SDS011;65824;43.726;20.692;2023-02-10T06:37:48;39.92;;;19.13;;
76850;SDS011;65824;43.726;20.692;2023-02-10T06:40:14;42.63;;;18.73;;
76850;SDS011;65824;43.726;20.692;2023-02-10T06:42:40;45.40;;;19.55;;
76850;SDS011;65824;43.726;20.692;2023-02-10T06:45:06;42.45;;;19.90;;
76850;SDS011;65824;43.726;20.692;2023-02-10T06:47:33;45.88;;;20.90;;
76850;SDS011;65824;43.726;20.692;2023-02-10T06:50:00;54.17;;;21.63;;
76850;SDS011;65824;43.726;20.692;2023-02-10T06:52:26;70.85;;;26.33;;
76850;SDS011;65824;43.726;20.692;2023-02-10T06:54:56;65.05;;;26.52;;
76850;SDS011;65824;43.726;20.692;2023-02-10T06:57:23;64.63;;;25.20;;
76850;SDS011;65824;43.726;20.692;2023-02-10T06:59:49;61.97;;;26.40;;
76850;SDS011;65824;43.726;20.692;2023-02-10T07:02:18;62.42;;;27.30;;
76850;SDS011;65824;43.726;20.692;2023-02-10T07:04:43;60.75;;;27.38;;
76850;SDS011;65824;43.726;20.692;2023-02-10T07:07:09;59.72;;;27.48;;
76850;SDS011;65824;43.726;20.692;2023-02-10T07:09:35;63.58;;;26.45;;
76850;SDS011;65824;43.726;20.692;2023-02-10T07:12:02;64.70;;;27.92;;
76850;SDS011;65824;43.726;20.692;2023-02-10T07:14:28;68.18;;;29.05;;
76850;SDS011;65824;43.726;20.692;2023-02-10T07:16:57;71.28;;;28.88;;
76850;SDS011;65824;43.726;20.692;2023-02-10T07:19:23;68.60;;;27.80;;
76850;SDS011;65824;43.726;20.692;2023-02-10T07:21:49;75.85;;;33.30;;
76850;SDS011;65824;43.726;20.692;2023-02-10T07:24:15;71.40;;;29.58;;
76850;SDS011;65824;43.726;20.692;2023-02-10T07:26:45;59.38;;;25.98;;
76850;SDS011;65824;43.726;20.692;2023-02-10T07:29:10;61.80;;;29.38;;
76850;SDS011;65824;43.726;20.692;2023-02-10T07:31:36;61.40;;;28.23;;
76850;SDS011;65824;43.726;20.692;2023-02-10T07:34:02;70.10;;;29.88;;
76850;SDS011;65824;43.726;20.692;2023-02-10T07:36:28;82.95;;;34.35;;
76850;SDS011;65824;43.726;20.692;2023-02-10T07:38:55;84.65;;;35.83;;
76850;SDS011;65824;43.726;20.692;2023-02-10T07:41:21;77.80;;;33.67;;
76850;SDS011;65824;43.726;20.692;2023-02-10T07:43:46;69.68;;;31.38;;
76850;SDS011;65824;43.726;20.692;2023-02-10T07:46:12;66.18;;;28.45;;
76850;SDS011;65824;43.726;20.692;2023-02-10T07:48:37;56.25;;;25.88;;
76850;SDS011;65824;43.726;20.692;2023-02-10T07:53:55;56.15;;;26.02;;
76850;SDS011;65824;43.726;20.692;2023-02-10T07:56:20;58.60;;;26.15;;
76850;SDS011;65824;43.726;20.692;2023-02-10T07:58:45;54.33;;;26.52;;
76850;SDS011;65824;43.726;20.692;2023-02-10T08:01:11;53.75;;;24.83;;
76850;SDS011;65824;43.726;20.692;2023-02-10T08:03:37;60.05;;;24.88;;
76850;SDS011;65824;43.726;20.692;2023-02-10T08:06:03;55.65;;;23.70;;
76850;SDS011;65824;43.726;20.692;2023-02-10T08:08:30;53.83;;;24.33;;
76850;SDS011;65824;43.726;20.692;2023-02-10T08:10:55;52.88;;;24.10;;
76850;SDS011;65824;43.726;20.692;2023-02-10T08:13:22;59.72;;;26.00;;
76850;SDS011;65824;43.726;20.692;2023-02-10T08:15:52;55.47;;;26.42;;
76850;SDS011;65824;43.726;20.692;2023-02-10T08:18:18;62.30;;;28.33;;
76850;SDS011;65824;43.726;20.692;2023-02-10T08:20:43;59.00;;;28.25;;
76850;SDS011;65824;43.726;20.692;2023-02-10T08:23:13;60.53;;;27.75;;
76850;SDS011;65824;43.726;20.692;2023-02-10T08:25:40;57.72;;;28.25;;
76850;SDS011;65824;43.726;20.692;2023-02-10T08:28:06;57.83;;;27.48;;
76850;SDS011;65824;43.726;20.692;2023-02-10T08:30:33;60.92;;;28.17;;
76850;SDS011;65824;43.726;20.692;2023-02-10T08:32:58;64.07;;;29.15;;
76850;SDS011;65824;43.726;20.692;2023-02-10T08:35:24;63.80;;;27.80;;
76850;SDS011;65824;43.726;20.692;2023-02-10T08:37:50;59.38;;;27.85;;
76850;SDS011;65824;43.726;20.692;2023-02-10T08:40:18;63.30;;;27.45;;
76850;SDS011;65824;43.726;20.692;2023-02-10T08:42:44;62.63;;;28.65;;
76850;SDS011;65824;43.726;20.692;2023-02-10T08:45:10;59.63;;;27.90;;
76850;SDS011;65824;43.726;20.692;2023-02-10T08:47:36;53.03;;;26.83;;
76850;SDS011;65824;43.726;20.692;2023-02-10T08:50:03;68.00;;;25.90;;
76850;SDS011;65824;43.726;20.692;2023-02-10T08:52:29;58.00;;;26.80;;
76850;SDS011;65824;43.726;20.692;2023-02-10T08:54:54;54.33;;;26.08;;
76850;SDS011;65824;43.726;20.692;2023-02-10T08:57:21;55.20;;;25.55;;
76850;SDS011;65824;43.726;20.692;2023-02-10T08:59:48;51.25;;;23.40;;
76850;SDS011;65824;43.726;20.692;2023-02-10T09:02:14;56.10;;;23.52;;
76850;SDS011;65824;43.726;20.692;2023-02-10T09:04:40;51.08;;;23.25;;
76850;SDS011;65824;43.726;20.692;2023-02-10T09:07:05;53.50;;;23.75;;
76850;SDS011;65824;43.726;20.692;2023-02-10T09:09:31;49.65;;;22.50;;
76850;SDS011;65824;43.726;20.692;2023-02-10T09:12:06;52.03;;;22.90;;
76850;SDS011;65824;43.726;20.692;2023-02-10T09:14:32;47.95;;;21.85;;
76850;SDS011;65824;43.726;20.692;2023-02-10T09:16:57;44.35;;;20.85;;
76850;SDS011;65824;43.726;20.692;2023-02-10T09:19:24;47.65;;;21.70;;
76850;SDS011;65824;43.726;20.692;2023-02-10T09:21:52;42.13;;;20.25;;
76850;SDS011;65824;43.726;20.692;2023-02-10T09:24:24;41.33;;;18.60;;
76850;SDS011;65824;43.726;20.692;2023-02-10T09:26:49;41.53;;;19.75;;
76850;SDS011;65824;43.726;20.692;2023-02-10T09:29:16;40.58;;;18.95;;
76850;SDS011;65824;43.726;20.692;2023-02-10T09:31:41;49.28;;;17.70;;
76850;SDS011;65824;43.726;20.692;2023-02-10T09:34:07;45.38;;;19.85;;
76850;SDS011;65824;43.726;20.692;2023-02-10T09:36:33;49.03;;;22.58;;
76850;SDS011;65824;43.726;20.692;2023-02-10T09:39:00;41.95;;;19.15;;
76850;SDS011;65824;43.726;20.692;2023-02-10T09:41:38;43.22;;;19.08;;
76850;SDS011;65824;43.726;20.692;2023-02-10T09:44:22;44.97;;;19.98;;
76850;SDS011;65824;43.726;20.692;2023-02-10T09:54:44;40.72;;;19.48;;
76850;SDS011;65824;43.726;20.692;2023-02-10T09:57:11;42.97;;;19.83;;
76850;SDS011;65824;43.726;20.692;2023-02-10T09:59:43;37.55;;;19.35;;
76850;SDS011;65824;43.726;20.692;2023-02-10T10:02:13;45.33;;;20.45;;
76850;SDS011;65824;43.726;20.692;2023-02-10T10:08:42;38.05;;;18.05;;
76850;SDS011;65824;43.726;20.692;2023-02-10T10:11:22;43.22;;;20.27;;
76850;SDS011;65824;43.726;20.692;2023-02-10T10:13:49;36.10;;;17.75;;
76850;SDS011;65824;43.726;20.692;2023-02-10T10:25:30;40.65;;;19.27;;
76850;SDS011;65824;43.726;20.692;2023-02-10T10:33:38;37.72;;;16.35;;
76850;SDS011;65824;43.726;20.692;2023-02-10T10:36:20;35.35;;;16.30;;
76850;SDS011;65824;43.726;20.692;2023-02-10T10:38:52;26.13;;;13.95;;
76850;SDS011;65824;43.726;20.692;2023-02-10T10:41:23;25.23;;;12.50;;
76850;SDS011;65824;43.726;20.692;2023-02-10T10:43:53;31.85;;;14.73;;
76850;SDS011;65824;43.726;20.692;2023-02-10T10:48:49;33.13;;;16.27;;
76850;SDS011;65824;43.726;20.692;2023-02-10T10:51:21;32.90;;;15.57;;
76850;SDS011;65824;43.726;20.692;2023-02-10T10:53:48;32.95;;;15.52;;
76850;SDS011;65824;43.726;20.692;2023-02-10T10:58:58;29.45;;;14.27;;
76850;SDS011;65824;43.726;20.692;2023-02-10T11:01:38;34.83;;;15.55;;
76850;SDS011;65824;43.726;20.692;2023-02-10T11:04:10;27.20;;;14.15;;
76850;SDS011;65824;43.726;20.692;2023-02-10T11:06:39;34.22;;;15.45;;
76850;SDS011;65824;43.726;20.692;2023-02-10T11:09:13;32.95;;;15.43;;
76850;SDS011;65824;43.726;20.692;2023-02-10T11:11:43;32.38;;;15.85;;
76850;SDS011;65824;43.726;20.692;2023-02-10T11:14:17;34.25;;;16.25;;
76850;SDS011;65824;43.726;20.692;2023-02-10T11:19:57;30.77;;;15.27;;
76850;SDS011;65824;43.726;20.692;2023-02-10T11:22:24;30.63;;;14.18;;
76850;SDS011;65824;43.726;20.692;2023-02-10T11:24:56;29.33;;;13.85;;
76850;SDS011;65824;43.726;20.692;2023-02-10T11:27:57;34.58;;;15.43;;
76850;SDS011;65824;43.726;20.692;2023-02-10T11:30:28;38.50;;;17.60;;
76850;SDS011;65824;43.726;20.692;2023-02-10T11:33:03;33.75;;;13.73;;
76850;SDS011;65824;43.726;20.692;2023-02-10T11:35:30;28.40;;;13.65;;
76850;SDS011;65824;43.726;20.692;2023-02-10T11:37:59;27.92;;;14.32;;
76850;SDS011;65824;43.726;20.692;2023-02-10T11:40:28;29.75;;;13.57;;
76850;SDS011;65824;43.726;20.692;2023-02-10T11:42:57;25.30;;;12.15;;
76850;SDS011;65824;43.726;20.692;2023-02-10T11:45:28;26.20;;;13.70;;
76850;SDS011;65824;43.726;20.692;2023-02-10T11:48:05;25.50;;;12.27;;
76850;SDS011;65824;43.726;20.692;2023-02-10T11:50:40;24.23;;;11.90;;
76850;SDS011;65824;43.726;20.692;2023-02-10T11:53:08;28.10;;;13.35;;
76850;SDS011;65824;43.726;20.692;2023-02-10T11:58:59;23.52;;;11.73;;
76850;SDS011;65824;43.726;20.692;2023-02-10T12:01:39;23.73;;;12.57;;
76850;SDS011;65824;43.726;20.692;2023-02-10T12:15:23;25.42;;;12.32;;
76850;SDS011;65824;43.726;20.692;2023-02-10T12:18:15;25.67;;;14.00;;
76850;SDS011;65824;43.726;20.692;2023-02-10T12:36:39;28.25;;;13.98;;
76850;SDS011;65824;43.726;20.692;2023-02-10T12:39:51;31.10;;;14.82;;
76850;SDS011;65824;43.726;20.692;2023-02-10T12:42:16;25.45;;;12.98;;
76850;SDS011;65824;43.726;20.692;2023-02-10T12:54:01;27.50;;;13.32;;
76850;SDS011;65824;43.726;20.692;2023-02-10T12:56:33;26.13;;;13.50;;
76850;SDS011;65824;43.726;20.692;2023-02-10T12:59:16;27.65;;;12.77;;
76850;SDS011;65824;43.726;20.692;2023-02-10T13:01:54;27.50;;;13.23;;
76850;SDS011;65824;43.726;20.692;2023-02-10T13:04:32;24.05;;;12.02;;
76850;SDS011;65824;43.726;20.692;2023-02-10T13:07:08;26.95;;;13.50;;
76850;SDS011;65824;43.726;20.692;2023-02-10T13:09:59;28.15;;;13.85;;
76850;SDS011;65824;43.726;20.692;2023-02-10T13:12:33;27.48;;;13.68;;
76850;SDS011;65824;43.726;20.692;2023-02-10T13:15:14;30.88;;;15.52;;
76850;SDS011;65824;43.726;20.692;2023-02-10T13:17:45;26.50;;;13.23;;
76850;SDS011;65824;43.726;20.692;2023-02-10T13:20:28;36.78;;;15.65;;
76850;SDS011;65824;43.726;20.692;2023-02-10T13:23:10;28.13;;;13.93;;
76850;SDS011;65824;43.726;20.692;2023-02-10T13:25:46;29.73;;;13.30;;
76850;SDS011;65824;43.726;20.692;2023-02-10T13:28:27;31.13;;;14.82;;
76850;SDS011;65824;43.726;20.692;2023-02-10T13:36:15;36.50;;;15.57;;
76850;SDS011;65824;43.726;20.692;2023-02-10T13:38:46;34.60;;;16.48;;
76850;SDS011;65824;43.726;20.692;2023-02-10T13:41:32;32.03;;;14.75;;
76850;SDS011;65824;43.726;20.692;2023-02-10T13:46:55;35.50;;;16.52;;
76850;SDS011;65824;43.726;20.692;2023-02-10T13:49:23;32.28;;;15.52;;
76850;SDS011;65824;43.726;20.692;2023-02-10T13:51:50;36.10;;;16.00;;
76850;SDS011;65824;43.726;20.692;2023-02-10T13:54:31;30.88;;;15.00;;
76850;SDS011;65824;43.726;20.692;2023-02-10T13:56:58;30.63;;;15.07;;
76850;SDS011;65824;43.726;20.692;2023-02-10T13:59:26;29.92;;;15.63;;
76850;SDS011;65824;43.726;20.692;2023-02-10T14:02:20;29.58;;;14.75;;
76850;SDS011;65824;43.726;20.692;2023-02-10T14:04:53;29.27;;;14.43;;
76850;SDS011;65824;43.726;20.692;2023-02-10T14:07:45;27.98;;;14.07;;
76850;SDS011;65824;43.726;20.692;2023-02-10T14:13:18;32.25;;;13.73;;
76850;SDS011;65824;43.726;20.692;2023-02-10T14:16:01;27.85;;;12.85;;
76850;SDS011;65824;43.726;20.692;2023-02-10T14:18:32;27.83;;;14.23;;
76850;SDS011;65824;43.726;20.692;2023-02-10T14:21:07;27.73;;;12.93;;
76850;SDS011;65824;43.726;20.692;2023-02-10T14:23:36;35.88;;;15.23;;
76850;SDS011;65824;43.726;20.692;2023-02-10T14:26:05;25.88;;;12.93;;
76850;SDS011;65824;43.726;20.692;2023-02-10T14:28:35;30.52;;;14.40;;
76850;SDS011;65824;43.726;20.692;2023-02-10T14:31:04;29.05;;;13.88;;
76850;SDS011;65824;43.726;20.692;2023-02-10T14:33:52;26.38;;;13.00;;
76850;SDS011;65824;43.726;20.692;2023-02-10T14:36:19;25.13;;;13.52;;
76850;SDS011;65824;43.726;20.692;2023-02-10T14:38:44;29.30;;;14.25;;
76850;SDS011;65824;43.726;20.692;2023-02-10T14:41:19;29.77;;;13.95;;
76850;SDS011;65824;43.726;20.692;2023-02-10T14:43:49;29.40;;;13.85;;
76850;SDS011;65824;43.726;20.692;2023-02-10T14:46:27;30.45;;;13.02;;
76850;SDS011;65824;43.726;20.692;2023-02-10T14:48:59;31.73;;;14.05;;
76850;SDS011;65824;43.726;20.692;2023-02-10T14:51:42;29.40;;;13.15;;
76850;SDS011;65824;43.726;20.692;2023-02-10T14:54:25;28.55;;;12.77;;
76850;SDS011;65824;43.726;20.692;2023-02-10T14:56:55;30.35;;;12.63;;
76850;SDS011;65824;43.726;20.692;2023-02-10T14:59:23;29.17;;;13.02;;
76850;SDS011;65824;43.726;20.692;2023-02-10T15:01:51;25.90;;;12.93;;
76850;SDS011;65824;43.726;20.692;2023-02-10T15:04:18;28.50;;;13.93;;
76850;SDS011;65824;43.726;20.692;2023-02-10T15:06:47;26.20;;;12.75;;
76850;SDS011;65824;43.726;20.692;2023-02-10T15:09:33;28.45;;;13.20;;
76850;SDS011;65824;43.726;20.692;2023-02-10T15:12:08;25.13;;;12.65;;
76850;SDS011;65824;43.726;20.692;2023-02-10T15:17:29;26.88;;;12.88;;
76850;SDS011;65824;43.726;20.692;2023-02-10T15:19:58;27.73;;;13.50;;
76850;SDS011;65824;43.726;20.692;2023-02-10T15:22:37;31.08;;;14.98;;
76850;SDS011;65824;43.726;20.692;2023-02-10T15:33:27;31.88;;;15.10;;
76850;SDS011;65824;43.726;20.692;2023-02-10T15:36:09;33.08;;;15.10;;
76850;SDS011;65824;43.726;20.692;2023-02-10T15:38:45;26.92;;;14.25;;
76850;SDS011;65824;43.726;20.692;2023-02-10T15:44:04;32.63;;;14.57;;
76850;SDS011;65824;43.726;20.692;2023-02-10T15:46:49;34.28;;;16.55;;
76850;SDS011;65824;43.726;20.692;2023-02-10T15:49:17;32.47;;;16.80;;
76850;SDS011;65824;43.726;20.692;2023-02-10T15:51:48;36.22;;;17.48;;
76850;SDS011;65824;43.726;20.692;2023-02-10T15:54:29;34.08;;;17.73;;
76850;SDS011;65824;43.726;20.692;2023-02-10T15:56:59;37.35;;;18.08;;
76850;SDS011;65824;43.726;20.692;2023-02-10T15:59:25;34.63;;;17.85;;
76850;SDS011;65824;43.726;20.692;2023-02-10T16:01:58;35.42;;;18.27;;
76850;SDS011;65824;43.726;20.692;2023-02-10T16:04:25;38.47;;;18.90;;
76850;SDS011;65824;43.726;20.692;2023-02-10T16:06:54;40.03;;;20.05;;
76850;SDS011;65824;43.726;20.692;2023-02-10T16:09:20;43.38;;;21.35;;
76850;SDS011;65824;43.726;20.692;2023-02-10T16:11:50;42.88;;;22.13;;
76850;SDS011;65824;43.726;20.692;2023-02-10T16:14:15;41.17;;;22.20;;
76850;SDS011;65824;43.726;20.692;2023-02-10T16:16:45;43.03;;;21.52;;
76850;SDS011;65824;43.726;20.692;2023-02-10T16:19:14;47.28;;;22.45;;
76850;SDS011;65824;43.726;20.692;2023-02-10T16:21:40;41.03;;;22.00;;
76850;SDS011;65824;43.726;20.692;2023-02-10T16:24:13;44.88;;;21.42;;
76850;SDS011;65824;43.726;20.692;2023-02-10T16:26:39;41.67;;;22.10;;
76850;SDS011;65824;43.726;20.692;2023-02-10T16:29:25;56.47;;;23.95;;
76850;SDS011;65824;43.726;20.692;2023-02-10T16:31:52;54.03;;;24.92;;
76850;SDS011;65824;43.726;20.692;2023-02-10T16:34:18;55.80;;;26.48;;
76850;SDS011;65824;43.726;20.692;2023-02-10T16:36:49;52.05;;;27.08;;
76850;SDS011;65824;43.726;20.692;2023-02-10T16:39:18;62.55;;;30.88;;